sensor_id;sensor_type;location;lat;lon;timestamp;temperature;humidity
69006;SHT31;56061;51.748;19.620;2022-08-23T00:01:35;19.56;87.10
69006;SHT31;56061;51.748;19.620;2022-08-23T00:04:15;19.54;87.10
69006;SHT31;56061;51.748;19.620;2022-08-23T00:06:47;19.52;87.10
69006;SHT31;56061;51.748;19.620;2022-08-23T00:09:16;19.50;87.10
69006;SHT31;56061;51.748;19.620;2022-08-23T00:11:50;19.49;87.10
69006;SHT31;56061;51.748;19.620;2022-08-23T00:14:32;19.46;87.15
69006;SHT31;56061;51.748;19.620;2022-08-23T00:17:03;19.44;87.13
69006;SHT31;56061;51.748;19.620;2022-08-23T00:19:32;19.43;87.08
69006;SHT31;56061;51.748;19.620;2022-08-23T00:21:58;19.40;87.18
69006;SHT31;56061;51.748;19.620;2022-08-23T00:24:25;19.38;87.26
69006;SHT31;56061;51.748;19.620;2022-08-23T00:32:14;19.33;87.42
69006;SHT31;56061;51.748;19.620;2022-08-23T00:34:55;19.33;87.40
69006;SHT31;56061;51.748;19.620;2022-08-23T00:37:22;19.31;87.40
69006;SHT31;56061;51.748;19.620;2022-08-23T00:39:50;19.32;87.39
69006;SHT31;56061;51.748;19.620;2022-08-23T00:45:32;19.30;87.39
69006;SHT31;56061;51.748;19.620;2022-08-23T00:48:28;19.29;87.38
69006;SHT31;56061;51.748;19.620;2022-08-23T00:53:55;19.28;87.44
69006;SHT31;56061;51.748;19.620;2022-08-23T00:56:27;19.27;87.46
69006;SHT31;56061;51.748;19.620;2022-08-23T00:58:59;19.27;87.47
69006;SHT31;56061;51.748;19.620;2022-08-23T01:01:26;19.26;87.53
69006;SHT31;56061;51.748;19.620;2022-08-23T01:03:55;19.25;87.58
69006;SHT31;56061;51.748;19.620;2022-08-23T01:09:24;19.24;87.64
69006;SHT31;56061;51.748;19.620;2022-08-23T01:15:06;19.25;87.71
69006;SHT31;56061;51.748;19.620;2022-08-23T01:17:55;19.26;87.72
69006;SHT31;56061;51.748;19.620;2022-08-23T01:20:30;19.25;87.70
69006;SHT31;56061;51.748;19.620;2022-08-23T01:23:39;19.25;87.77
69006;SHT31;56061;51.748;19.620;2022-08-23T01:26:09;19.25;87.80
69006;SHT31;56061;51.748;19.620;2022-08-23T01:28:38;19.27;87.81
69006;SHT31;56061;51.748;19.620;2022-08-23T01:31:11;19.28;87.83
69006;SHT31;56061;51.748;19.620;2022-08-23T01:33:40;19.31;87.86
69006;SHT31;56061;51.748;19.620;2022-08-23T01:36:10;19.33;87.84
69006;SHT31;56061;51.748;19.620;2022-08-23T01:38:39;19.35;87.82
69006;SHT31;56061;51.748;19.620;2022-08-23T01:41:06;19.37;87.79
69006;SHT31;56061;51.748;19.620;2022-08-23T01:43:33;19.40;87.77
69006;SHT31;56061;51.748;19.620;2022-08-23T01:46:07;19.43;87.70
69006;SHT31;56061;51.748;19.620;2022-08-23T01:48:38;19.45;87.69
69006;SHT31;56061;51.748;19.620;2022-08-23T01:51:04;19.49;87.63
69006;SHT31;56061;51.748;19.620;2022-08-23T01:53:32;19.51;87.62
69006;SHT31;56061;51.748;19.620;2022-08-23T01:55:59;19.54;87.61
69006;SHT31;56061;51.748;19.620;2022-08-23T01:58:27;19.55;87.60
69006;SHT31;56061;51.748;19.620;2022-08-23T02:00:56;19.58;87.54
69006;SHT31;56061;51.748;19.620;2022-08-23T02:03:23;19.61;87.47
69006;SHT31;56061;51.748;19.620;2022-08-23T02:05:50;19.63;87.41
69006;SHT31;56061;51.748;19.620;2022-08-23T02:08:22;19.66;87.39
69006;SHT31;56061;51.748;19.620;2022-08-23T02:11:14;19.67;87.29
69006;SHT31;56061;51.748;19.620;2022-08-23T02:13:44;19.71;87.23
69006;SHT31;56061;51.748;19.620;2022-08-23T02:16:11;19.70;87.20
69006;SHT31;56061;51.748;19.620;2022-08-23T02:18:40;19.71;87.20
69006;SHT31;56061;51.748;19.620;2022-08-23T02:21:08;19.72;87.21
69006;SHT31;56061;51.748;19.620;2022-08-23T02:23:35;19.76;87.21
69006;SHT31;56061;51.748;19.620;2022-08-23T02:26:02;19.81;87.20
69006;SHT31;56061;51.748;19.620;2022-08-23T02:28:29;19.82;87.19
69006;SHT31;56061;51.748;19.620;2022-08-23T02:30:55;19.86;87.17
69006;SHT31;56061;51.748;19.620;2022-08-23T02:33:23;19.90;87.04
69006;SHT31;56061;51.748;19.620;2022-08-23T02:35:49;19.92;86.96
69006;SHT31;56061;51.748;19.620;2022-08-23T02:38:16;19.96;86.88
69006;SHT31;56061;51.748;19.620;2022-08-23T02:40:43;19.97;86.74
69006;SHT31;56061;51.748;19.620;2022-08-23T02:43:10;19.98;86.69
69006;SHT31;56061;51.748;19.620;2022-08-23T02:45:37;19.99;86.63
69006;SHT31;56061;51.748;19.620;2022-08-23T02:48:04;20.00;86.61
69006;SHT31;56061;51.748;19.620;2022-08-23T02:50:32;20.00;86.57
69006;SHT31;56061;51.748;19.620;2022-08-23T02:52:59;20.02;86.56
69006;SHT31;56061;51.748;19.620;2022-08-23T02:55:26;20.04;86.52
69006;SHT31;56061;51.748;19.620;2022-08-23T02:57:53;20.04;86.47
69006;SHT31;56061;51.748;19.620;2022-08-23T03:00:20;20.05;86.42
69006;SHT31;56061;51.748;19.620;2022-08-23T03:02:48;20.05;86.39
69006;SHT31;56061;51.748;19.620;2022-08-23T03:05:14;19.99;86.32
69006;SHT31;56061;51.748;19.620;2022-08-23T03:07:42;19.94;86.41
69006;SHT31;56061;51.748;19.620;2022-08-23T03:10:10;19.92;86.44
69006;SHT31;56061;51.748;19.620;2022-08-23T03:12:37;19.85;86.52
69006;SHT31;56061;51.748;19.620;2022-08-23T03:15:04;19.84;86.60
69006;SHT31;56061;51.748;19.620;2022-08-23T03:17:32;19.83;86.64
69006;SHT31;56061;51.748;19.620;2022-08-23T03:19:59;19.79;86.78
69006;SHT31;56061;51.748;19.620;2022-08-23T03:22:26;19.76;86.96
69006;SHT31;56061;51.748;19.620;2022-08-23T03:24:52;19.73;86.97
69006;SHT31;56061;51.748;19.620;2022-08-23T03:27:20;19.71;86.99
69006;SHT31;56061;51.748;19.620;2022-08-23T03:29:46;19.64;87.05
69006;SHT31;56061;51.748;19.620;2022-08-23T03:32:13;19.56;87.22
69006;SHT31;56061;51.748;19.620;2022-08-23T03:34:42;19.52;87.27
69006;SHT31;56061;51.748;19.620;2022-08-23T03:37:09;19.49;87.39
69006;SHT31;56061;51.748;19.620;2022-08-23T03:39:35;19.47;87.40
69006;SHT31;56061;51.748;19.620;2022-08-23T03:42:02;19.44;87.43
69006;SHT31;56061;51.748;19.620;2022-08-23T03:44:30;19.40;87.47
69006;SHT31;56061;51.748;19.620;2022-08-23T03:46:56;19.39;87.52
69006;SHT31;56061;51.748;19.620;2022-08-23T03:49:23;19.39;87.60
69006;SHT31;56061;51.748;19.620;2022-08-23T03:51:50;19.39;87.55
69006;SHT31;56061;51.748;19.620;2022-08-23T03:54:17;19.38;87.57
69006;SHT31;56061;51.748;19.620;2022-08-23T03:56:54;19.38;87.57
69006;SHT31;56061;51.748;19.620;2022-08-23T03:59:28;19.35;87.54
69006;SHT31;56061;51.748;19.620;2022-08-23T04:01:57;19.32;87.57
69006;SHT31;56061;51.748;19.620;2022-08-23T04:04:25;19.29;87.59
69006;SHT31;56061;51.748;19.620;2022-08-23T04:06:52;19.27;87.68
69006;SHT31;56061;51.748;19.620;2022-08-23T04:09:19;19.27;87.69
69006;SHT31;56061;51.748;19.620;2022-08-23T04:11:46;19.27;87.71
69006;SHT31;56061;51.748;19.620;2022-08-23T04:14:13;19.28;87.76
69006;SHT31;56061;51.748;19.620;2022-08-23T04:16:40;19.30;87.78
69006;SHT31;56061;51.748;19.620;2022-08-23T04:19:08;19.31;87.83
69006;SHT31;56061;51.748;19.620;2022-08-23T04:21:41;19.36;87.84
69006;SHT31;56061;51.748;19.620;2022-08-23T04:24:14;19.36;87.80
69006;SHT31;56061;51.748;19.620;2022-08-23T04:26:42;19.35;87.81
69006;SHT31;56061;51.748;19.620;2022-08-23T04:29:12;19.35;87.81
69006;SHT31;56061;51.748;19.620;2022-08-23T04:31:59;19.34;87.81
69006;SHT31;56061;51.748;19.620;2022-08-23T04:34:33;19.33;87.85
69006;SHT31;56061;51.748;19.620;2022-08-23T04:37:01;19.35;87.89
69006;SHT31;56061;51.748;19.620;2022-08-23T04:39:28;19.34;87.84
69006;SHT31;56061;51.748;19.620;2022-08-23T04:41:54;19.33;87.80
69006;SHT31;56061;51.748;19.620;2022-08-23T04:44:40;19.32;87.80
69006;SHT31;56061;51.748;19.620;2022-08-23T04:47:06;19.30;87.85
69006;SHT31;56061;51.748;19.620;2022-08-23T04:49:33;19.33;87.84
69006;SHT31;56061;51.748;19.620;2022-08-23T04:52:00;19.31;87.91
69006;SHT31;56061;51.748;19.620;2022-08-23T04:54:26;19.33;87.96
69006;SHT31;56061;51.748;19.620;2022-08-23T04:56:54;19.34;87.98
69006;SHT31;56061;51.748;19.620;2022-08-23T04:59:21;19.36;87.99
69006;SHT31;56061;51.748;19.620;2022-08-23T05:01:48;19.40;87.95
69006;SHT31;56061;51.748;19.620;2022-08-23T05:04:16;19.41;87.87
69006;SHT31;56061;51.748;19.620;2022-08-23T05:06:43;19.44;87.78
69006;SHT31;56061;51.748;19.620;2022-08-23T05:09:11;19.43;87.76
69006;SHT31;56061;51.748;19.620;2022-08-23T05:11:45;19.43;87.77
69006;SHT31;56061;51.748;19.620;2022-08-23T05:14:11;19.44;87.76
69006;SHT31;56061;51.748;19.620;2022-08-23T05:16:38;19.46;87.79
69006;SHT31;56061;51.748;19.620;2022-08-23T05:19:04;19.46;87.73
69006;SHT31;56061;51.748;19.620;2022-08-23T05:21:31;19.47;87.69
69006;SHT31;56061;51.748;19.620;2022-08-23T05:23:59;19.46;87.66
69006;SHT31;56061;51.748;19.620;2022-08-23T05:26:28;19.46;87.68
69006;SHT31;56061;51.748;19.620;2022-08-23T05:28:55;19.47;87.74
69006;SHT31;56061;51.748;19.620;2022-08-23T05:31:23;19.49;87.74
69006;SHT31;56061;51.748;19.620;2022-08-23T05:33:53;19.50;88.00
69006;SHT31;56061;51.748;19.620;2022-08-23T05:36:20;19.51;88.20
69006;SHT31;56061;51.748;19.620;2022-08-23T05:38:47;19.50;88.20
69006;SHT31;56061;51.748;19.620;2022-08-23T05:41:15;19.51;88.27
69006;SHT31;56061;51.748;19.620;2022-08-23T05:43:46;19.54;88.37
69006;SHT31;56061;51.748;19.620;2022-08-23T05:46:14;19.59;88.39
69006;SHT31;56061;51.748;19.620;2022-08-23T05:48:46;19.67;88.42
69006;SHT31;56061;51.748;19.620;2022-08-23T05:53:49;19.89;88.64
69006;SHT31;56061;51.748;19.620;2022-08-23T05:56:19;20.04;88.70
69006;SHT31;56061;51.748;19.620;2022-08-23T05:58:55;20.18;88.62
69006;SHT31;56061;51.748;19.620;2022-08-23T06:01:26;20.27;88.34
69006;SHT31;56061;51.748;19.620;2022-08-23T06:03:59;20.36;88.38
69006;SHT31;56061;51.748;19.620;2022-08-23T06:06:29;20.45;88.18
69006;SHT31;56061;51.748;19.620;2022-08-23T06:09:03;20.54;88.19
69006;SHT31;56061;51.748;19.620;2022-08-23T06:11:33;20.63;88.10
69006;SHT31;56061;51.748;19.620;2022-08-23T06:14:00;20.70;88.00
69006;SHT31;56061;51.748;19.620;2022-08-23T06:16:40;20.76;88.04
69006;SHT31;56061;51.748;19.620;2022-08-23T06:19:12;20.83;87.97
69006;SHT31;56061;51.748;19.620;2022-08-23T06:21:40;20.90;87.87
69006;SHT31;56061;51.748;19.620;2022-08-23T06:24:08;20.95;87.76
69006;SHT31;56061;51.748;19.620;2022-08-23T06:26:39;20.99;87.55
69006;SHT31;56061;51.748;19.620;2022-08-23T06:29:11;21.02;87.51
69006;SHT31;56061;51.748;19.620;2022-08-23T06:31:42;21.04;87.50
69006;SHT31;56061;51.748;19.620;2022-08-23T06:34:19;21.08;87.48
69006;SHT31;56061;51.748;19.620;2022-08-23T06:37:08;21.11;87.29
69006;SHT31;56061;51.748;19.620;2022-08-23T06:39:37;21.15;87.29
69006;SHT31;56061;51.748;19.620;2022-08-23T06:42:06;21.23;87.23
69006;SHT31;56061;51.748;19.620;2022-08-23T06:44:56;21.31;87.03
69006;SHT31;56061;51.748;19.620;2022-08-23T06:47:23;21.36;86.88
69006;SHT31;56061;51.748;19.620;2022-08-23T06:49:49;21.39;86.80
69006;SHT31;56061;51.748;19.620;2022-08-23T06:52:23;21.42;86.64
69006;SHT31;56061;51.748;19.620;2022-08-23T06:54:52;21.44;86.62
69006;SHT31;56061;51.748;19.620;2022-08-23T06:57:19;21.50;86.62
69006;SHT31;56061;51.748;19.620;2022-08-23T06:59:49;21.57;86.49
69006;SHT31;56061;51.748;19.620;2022-08-23T07:02:16;21.62;86.36
69006;SHT31;56061;51.748;19.620;2022-08-23T07:04:43;21.70;86.28
69006;SHT31;56061;51.748;19.620;2022-08-23T07:07:10;21.79;86.22
69006;SHT31;56061;51.748;19.620;2022-08-23T07:09:38;21.88;86.07
69006;SHT31;56061;51.748;19.620;2022-08-23T07:12:06;21.99;85.84
69006;SHT31;56061;51.748;19.620;2022-08-23T07:14:33;22.11;85.70
69006;SHT31;56061;51.748;19.620;2022-08-23T07:17:01;22.20;85.43
69006;SHT31;56061;51.748;19.620;2022-08-23T07:19:30;22.26;85.20
69006;SHT31;56061;51.748;19.620;2022-08-23T07:22:00;22.29;85.02
69006;SHT31;56061;51.748;19.620;2022-08-23T07:24:30;22.30;84.92
69006;SHT31;56061;51.748;19.620;2022-08-23T07:26:59;22.31;84.91
69006;SHT31;56061;51.748;19.620;2022-08-23T07:29:32;22.35;84.86
69006;SHT31;56061;51.748;19.620;2022-08-23T07:32:02;22.35;84.73
69006;SHT31;56061;51.748;19.620;2022-08-23T07:34:30;22.38;84.91
69006;SHT31;56061;51.748;19.620;2022-08-23T07:36:58;22.44;85.06
69006;SHT31;56061;51.748;19.620;2022-08-23T07:39:26;22.53;84.94
69006;SHT31;56061;51.748;19.620;2022-08-23T07:41:53;22.66;84.94
69006;SHT31;56061;51.748;19.620;2022-08-23T07:44:20;22.78;84.93
69006;SHT31;56061;51.748;19.620;2022-08-23T07:46:52;22.94;84.58
69006;SHT31;56061;51.748;19.620;2022-08-23T07:49:20;23.08;84.32
69006;SHT31;56061;51.748;19.620;2022-08-23T07:51:48;23.27;84.25
69006;SHT31;56061;51.748;19.620;2022-08-23T07:54:17;23.42;83.48
69006;SHT31;56061;51.748;19.620;2022-08-23T07:56:46;23.52;83.26
69006;SHT31;56061;51.748;19.620;2022-08-23T07:59:13;23.64;83.20
69006;SHT31;56061;51.748;19.620;2022-08-23T08:01:40;23.74;83.33
69006;SHT31;56061;51.748;19.620;2022-08-23T08:04:09;23.86;82.77
69006;SHT31;56061;51.748;19.620;2022-08-23T08:06:39;23.99;82.80
69006;SHT31;56061;51.748;19.620;2022-08-23T08:09:35;24.12;81.74
69006;SHT31;56061;51.748;19.620;2022-08-23T08:12:02;24.17;81.32
69006;SHT31;56061;51.748;19.620;2022-08-23T08:14:29;24.23;81.27
69006;SHT31;56061;51.748;19.620;2022-08-23T08:16:56;24.31;81.26
69006;SHT31;56061;51.748;19.620;2022-08-23T08:19:23;24.39;81.17
69006;SHT31;56061;51.748;19.620;2022-08-23T08:21:50;24.48;81.17
69006;SHT31;56061;51.748;19.620;2022-08-23T08:24:17;24.59;80.90
69006;SHT31;56061;51.748;19.620;2022-08-23T08:26:44;24.67;80.83
69006;SHT31;56061;51.748;19.620;2022-08-23T08:29:12;24.73;80.39
69006;SHT31;56061;51.748;19.620;2022-08-23T08:31:40;24.78;79.91
69006;SHT31;56061;51.748;19.620;2022-08-23T08:34:08;24.89;79.13
69006;SHT31;56061;51.748;19.620;2022-08-23T08:36:37;24.99;78.76
69006;SHT31;56061;51.748;19.620;2022-08-23T08:39:15;25.08;78.38
69006;SHT31;56061;51.748;19.620;2022-08-23T08:45:18;25.15;76.96
69006;SHT31;56061;51.748;19.620;2022-08-23T08:47:56;25.16;76.82
69006;SHT31;56061;51.748;19.620;2022-08-23T08:50:34;25.16;76.56
69006;SHT31;56061;51.748;19.620;2022-08-23T08:53:18;25.19;76.37
69006;SHT31;56061;51.748;19.620;2022-08-23T08:55:55;25.19;76.03
69006;SHT31;56061;51.748;19.620;2022-08-23T08:58:32;25.16;75.89
69006;SHT31;56061;51.748;19.620;2022-08-23T09:01:08;25.11;75.80
69006;SHT31;56061;51.748;19.620;2022-08-23T09:03:35;25.05;75.70
69006;SHT31;56061;51.748;19.620;2022-08-23T09:06:06;25.01;75.57
69006;SHT31;56061;51.748;19.620;2022-08-23T09:19:54;25.25;75.17
69006;SHT31;56061;51.748;19.620;2022-08-23T09:22:29;25.37;74.98
69006;SHT31;56061;51.748;19.620;2022-08-23T09:25:16;25.52;74.26
69006;SHT31;56061;51.748;19.620;2022-08-23T09:27:43;25.65;74.20
69006;SHT31;56061;51.748;19.620;2022-08-23T09:30:12;25.81;73.98
69006;SHT31;56061;51.748;19.620;2022-08-23T09:32:43;25.96;73.41
69006;SHT31;56061;51.748;19.620;2022-08-23T09:35:16;26.08;73.09
69006;SHT31;56061;51.748;19.620;2022-08-23T09:37:54;26.21;72.74
69006;SHT31;56061;51.748;19.620;2022-08-23T09:48:16;26.52;71.99
69006;SHT31;56061;51.748;19.620;2022-08-23T09:51:04;26.56;71.83
69006;SHT31;56061;51.748;19.620;2022-08-23T09:53:44;26.56;72.11
69006;SHT31;56061;51.748;19.620;2022-08-23T09:56:29;26.57;72.37
69006;SHT31;56061;51.748;19.620;2022-08-23T09:59:02;26.52;72.06
69006;SHT31;56061;51.748;19.620;2022-08-23T10:01:53;26.44;72.67
69006;SHT31;56061;51.748;19.620;2022-08-23T10:04:37;26.33;72.95
69006;SHT31;56061;51.748;19.620;2022-08-23T10:07:31;26.17;73.04
69006;SHT31;56061;51.748;19.620;2022-08-23T10:12:48;25.91;73.89
69006;SHT31;56061;51.748;19.620;2022-08-23T10:15:16;25.70;75.68
69006;SHT31;56061;51.748;19.620;2022-08-23T10:26:22;24.11;79.34
69006;SHT31;56061;51.748;19.620;2022-08-23T10:40:43;22.70;81.24
69006;SHT31;56061;51.748;19.620;2022-08-23T10:46:13;22.21;81.89
69006;SHT31;56061;51.748;19.620;2022-08-23T10:48:44;22.02;82.33
69006;SHT31;56061;51.748;19.620;2022-08-23T10:51:21;21.81;82.95
69006;SHT31;56061;51.748;19.620;2022-08-23T10:53:58;21.66;83.35
69006;SHT31;56061;51.748;19.620;2022-08-23T10:56:33;21.57;83.55
69006;SHT31;56061;51.748;19.620;2022-08-23T10:59:12;21.47;83.95
69006;SHT31;56061;51.748;19.620;2022-08-23T11:01:54;21.39;84.41
69006;SHT31;56061;51.748;19.620;2022-08-23T11:07:40;21.27;85.19
69006;SHT31;56061;51.748;19.620;2022-08-23T11:10:09;21.28;85.50
69006;SHT31;56061;51.748;19.620;2022-08-23T11:12:58;21.27;85.73
69006;SHT31;56061;51.748;19.620;2022-08-23T11:18:50;21.22;85.99
69006;SHT31;56061;51.748;19.620;2022-08-23T11:23:45;21.09;85.70
69006;SHT31;56061;51.748;19.620;2022-08-23T11:37:59;20.59;86.45
69006;SHT31;56061;51.748;19.620;2022-08-23T11:40:37;20.67;86.70
69006;SHT31;56061;51.748;19.620;2022-08-23T11:43:11;20.86;86.99
69006;SHT31;56061;51.748;19.620;2022-08-23T11:45:50;21.09;86.97
69006;SHT31;56061;51.748;19.620;2022-08-23T11:57:18;22.37;86.07
69006;SHT31;56061;51.748;19.620;2022-08-23T12:06:04;22.91;84.46
69006;SHT31;56061;51.748;19.620;2022-08-23T12:25:41;24.03;81.75
69006;SHT31;56061;51.748;19.620;2022-08-23T12:28:15;24.21;81.28
69006;SHT31;56061;51.748;19.620;2022-08-23T12:34:05;24.45;80.31
69006;SHT31;56061;51.748;19.620;2022-08-23T12:36:52;24.52;79.68
69006;SHT31;56061;51.748;19.620;2022-08-23T12:39:38;24.53;79.78
69006;SHT31;56061;51.748;19.620;2022-08-23T12:42:17;24.60;79.74
69006;SHT31;56061;51.748;19.620;2022-08-23T12:45:15;24.71;79.23
69006;SHT31;56061;51.748;19.620;2022-08-23T12:47:57;24.76;78.71
69006;SHT31;56061;51.748;19.620;2022-08-23T12:50:32;24.74;78.37
69006;SHT31;56061;51.748;19.620;2022-08-23T12:53:05;24.74;78.81
69006;SHT31;56061;51.748;19.620;2022-08-23T12:55:47;24.82;78.74
69006;SHT31;56061;51.748;19.620;2022-08-23T12:58:27;24.92;77.69
69006;SHT31;56061;51.748;19.620;2022-08-23T13:01:00;25.00;76.81
69006;SHT31;56061;51.748;19.620;2022-08-23T13:03:35;25.04;76.52
69006;SHT31;56061;51.748;19.620;2022-08-23T13:06:13;25.05;76.60
69006;SHT31;56061;51.748;19.620;2022-08-23T13:08:51;25.10;77.08
69006;SHT31;56061;51.748;19.620;2022-08-23T13:11:34;25.17;76.77
69006;SHT31;56061;51.748;19.620;2022-08-23T13:14:23;25.24;76.10
69006;SHT31;56061;51.748;19.620;2022-08-23T13:19:51;25.38;76.36
69006;SHT31;56061;51.748;19.620;2022-08-23T13:23:04;25.47;75.77
69006;SHT31;56061;51.748;19.620;2022-08-23T13:25:38;25.52;75.44
69006;SHT31;56061;51.748;19.620;2022-08-23T13:31:06;25.61;74.31
69006;SHT31;56061;51.748;19.620;2022-08-23T13:33:33;25.61;74.32
69006;SHT31;56061;51.748;19.620;2022-08-23T13:36:34;25.67;74.63
69006;SHT31;56061;51.748;19.620;2022-08-23T13:38:55;25.75;74.86
69006;SHT31;56061;51.748;19.620;2022-08-23T13:41:33;25.80;74.72
69006;SHT31;56061;51.748;19.620;2022-08-23T13:44:05;25.84;75.24
69006;SHT31;56061;51.748;19.620;2022-08-23T13:46:33;25.94;74.66
69006;SHT31;56061;51.748;19.620;2022-08-23T13:49:19;26.01;74.41
69006;SHT31;56061;51.748;19.620;2022-08-23T13:54:45;26.18;73.96
69006;SHT31;56061;51.748;19.620;2022-08-23T13:57:17;26.26;73.84
69006;SHT31;56061;51.748;19.620;2022-08-23T13:59:50;26.34;74.18
69006;SHT31;56061;51.748;19.620;2022-08-23T14:02:20;26.44;73.71
69006;SHT31;56061;51.748;19.620;2022-08-23T14:04:48;26.56;73.74
69006;SHT31;56061;51.748;19.620;2022-08-23T14:07:16;26.66;73.14
69006;SHT31;56061;51.748;19.620;2022-08-23T14:09:43;26.72;72.87
69006;SHT31;56061;51.748;19.620;2022-08-23T14:12:12;26.77;72.58
69006;SHT31;56061;51.748;19.620;2022-08-23T14:14:43;26.84;72.37
69006;SHT31;56061;51.748;19.620;2022-08-23T14:17:11;27.00;72.66
69006;SHT31;56061;51.748;19.620;2022-08-23T14:19:42;27.19;72.47
69006;SHT31;56061;51.748;19.620;2022-08-23T14:22:32;27.34;72.08
69006;SHT31;56061;51.748;19.620;2022-08-23T14:25:00;27.39;71.90
69006;SHT31;56061;51.748;19.620;2022-08-23T14:27:27;27.46;71.86
69006;SHT31;56061;51.748;19.620;2022-08-23T14:29:53;27.50;71.15
69006;SHT31;56061;51.748;19.620;2022-08-23T14:32:20;27.51;71.16
69006;SHT31;56061;51.748;19.620;2022-08-23T14:34:47;27.53;70.64
69006;SHT31;56061;51.748;19.620;2022-08-23T14:37:14;27.45;70.86
69006;SHT31;56061;51.748;19.620;2022-08-23T14:40:01;27.38;70.77
69006;SHT31;56061;51.748;19.620;2022-08-23T14:42:30;27.32;71.18
69006;SHT31;56061;51.748;19.620;2022-08-23T14:44:56;27.32;71.53
69006;SHT31;56061;51.748;19.620;2022-08-23T14:47:24;27.27;71.30
69006;SHT31;56061;51.748;19.620;2022-08-23T14:49:51;27.13;71.16
69006;SHT31;56061;51.748;19.620;2022-08-23T14:52:19;26.92;71.36
69006;SHT31;56061;51.748;19.620;2022-08-23T14:54:46;26.72;71.90
69006;SHT31;56061;51.748;19.620;2022-08-23T14:57:14;26.57;72.11
69006;SHT31;56061;51.748;19.620;2022-08-23T14:59:41;26.42;72.21
69006;SHT31;56061;51.748;19.620;2022-08-23T15:02:08;26.32;72.36
69006;SHT31;56061;51.748;19.620;2022-08-23T15:04:38;26.19;72.17
69006;SHT31;56061;51.748;19.620;2022-08-23T15:07:06;26.05;72.33
69006;SHT31;56061;51.748;19.620;2022-08-23T15:09:50;25.95;72.46
69006;SHT31;56061;51.748;19.620;2022-08-23T15:12:21;25.87;72.51
69006;SHT31;56061;51.748;19.620;2022-08-23T15:15:13;25.76;72.84
69006;SHT31;56061;51.748;19.620;2022-08-23T15:17:51;25.64;73.34
69006;SHT31;56061;51.748;19.620;2022-08-23T15:20:24;25.48;73.68
69006;SHT31;56061;51.748;19.620;2022-08-23T15:22:58;25.34;74.22
69006;SHT31;56061;51.748;19.620;2022-08-23T15:25:27;25.23;74.74
69006;SHT31;56061;51.748;19.620;2022-08-23T15:27:56;25.15;75.49
69006;SHT31;56061;51.748;19.620;2022-08-23T15:30:23;25.08;75.90
69006;SHT31;56061;51.748;19.620;2022-08-23T15:32:50;24.99;76.09
69006;SHT31;56061;51.748;19.620;2022-08-23T15:35:22;24.86;76.70
69006;SHT31;56061;51.748;19.620;2022-08-23T15:37:51;24.76;77.16
69006;SHT31;56061;51.748;19.620;2022-08-23T15:40:19;24.63;77.30
69006;SHT31;56061;51.748;19.620;2022-08-23T15:42:46;24.51;77.71
69006;SHT31;56061;51.748;19.620;2022-08-23T15:45:13;24.38;78.17
69006;SHT31;56061;51.748;19.620;2022-08-23T15:50:21;24.10;78.83
69006;SHT31;56061;51.748;19.620;2022-08-23T15:52:51;23.91;79.43
69006;SHT31;56061;51.748;19.620;2022-08-23T15:55:18;23.73;80.06
69006;SHT31;56061;51.748;19.620;2022-08-23T15:57:47;23.53;80.71
69006;SHT31;56061;51.748;19.620;2022-08-23T16:00:18;23.32;81.19
69006;SHT31;56061;51.748;19.620;2022-08-23T16:02:48;23.14;81.80
69006;SHT31;56061;51.748;19.620;2022-08-23T16:05:36;22.97;82.33
69006;SHT31;56061;51.748;19.620;2022-08-23T16:08:05;22.83;82.70
69006;SHT31;56061;51.748;19.620;2022-08-23T16:10:33;22.67;83.08
69006;SHT31;56061;51.748;19.620;2022-08-23T16:13:00;22.52;83.36
69006;SHT31;56061;51.748;19.620;2022-08-23T16:15:27;22.38;83.66
69006;SHT31;56061;51.748;19.620;2022-08-23T16:17:54;22.26;83.84
69006;SHT31;56061;51.748;19.620;2022-08-23T16:20:20;22.14;83.97
69006;SHT31;56061;51.748;19.620;2022-08-23T16:22:47;22.04;84.19
69006;SHT31;56061;51.748;19.620;2022-08-23T16:25:13;21.96;84.41
69006;SHT31;56061;51.748;19.620;2022-08-23T16:27:40;21.88;84.63
69006;SHT31;56061;51.748;19.620;2022-08-23T16:30:07;21.80;84.73
69006;SHT31;56061;51.748;19.620;2022-08-23T16:32:38;21.75;84.88
69006;SHT31;56061;51.748;19.620;2022-08-23T16:35:05;21.73;85.09
69006;SHT31;56061;51.748;19.620;2022-08-23T16:37:32;21.69;85.20
69006;SHT31;56061;51.748;19.620;2022-08-23T16:40:02;21.67;85.40
69006;SHT31;56061;51.748;19.620;2022-08-23T16:42:33;21.67;85.35
69006;SHT31;56061;51.748;19.620;2022-08-23T16:44:59;21.67;85.53
69006;SHT31;56061;51.748;19.620;2022-08-23T16:47:26;21.67;85.63
69006;SHT31;56061;51.748;19.620;2022-08-23T16:49:56;21.68;85.59
69006;SHT31;56061;51.748;19.620;2022-08-23T16:52:22;21.68;85.62
69006;SHT31;56061;51.748;19.620;2022-08-23T16:55:00;21.67;85.64
69006;SHT31;56061;51.748;19.620;2022-08-23T16:57:32;21.67;85.76
69006;SHT31;56061;51.748;19.620;2022-08-23T16:59:59;21.64;85.90
69006;SHT31;56061;51.748;19.620;2022-08-23T17:02:28;21.58;86.03
69006;SHT31;56061;51.748;19.620;2022-08-23T17:04:58;21.56;86.23
69006;SHT31;56061;51.748;19.620;2022-08-23T17:07:25;21.58;86.42
69006;SHT31;56061;51.748;19.620;2022-08-23T17:09:52;21.60;86.48
69006;SHT31;56061;51.748;19.620;2022-08-23T17:12:18;21.61;86.45
69006;SHT31;56061;51.748;19.620;2022-08-23T17:14:46;21.63;86.48
69006;SHT31;56061;51.748;19.620;2022-08-23T17:17:16;21.63;86.47
69006;SHT31;56061;51.748;19.620;2022-08-23T17:19:43;21.66;86.53
69006;SHT31;56061;51.748;19.620;2022-08-23T17:22:10;21.70;86.59
69006;SHT31;56061;51.748;19.620;2022-08-23T17:24:37;21.73;86.47
69006;SHT31;56061;51.748;19.620;2022-08-23T17:27:03;21.74;86.48
69006;SHT31;56061;51.748;19.620;2022-08-23T17:29:31;21.75;86.54
69006;SHT31;56061;51.748;19.620;2022-08-23T17:32:03;21.78;86.54
69006;SHT31;56061;51.748;19.620;2022-08-23T17:34:30;21.81;86.29
69006;SHT31;56061;51.748;19.620;2022-08-23T17:36:57;21.80;86.28
69006;SHT31;56061;51.748;19.620;2022-08-23T17:39:25;21.80;86.27
69006;SHT31;56061;51.748;19.620;2022-08-23T17:41:54;21.77;86.33
69006;SHT31;56061;51.748;19.620;2022-08-23T17:44:23;21.74;86.41
69006;SHT31;56061;51.748;19.620;2022-08-23T17:46:50;21.73;86.46
69006;SHT31;56061;51.748;19.620;2022-08-23T17:49:17;21.69;86.51
69006;SHT31;56061;51.748;19.620;2022-08-23T17:51:44;21.66;86.57
69006;SHT31;56061;51.748;19.620;2022-08-23T17:54:11;21.62;86.53
69006;SHT31;56061;51.748;19.620;2022-08-23T17:56:41;21.59;86.64